Skip Navigation

Christman Field Latest Observations

Switch to metric unitsOther observation timesWeekly graphs

Date Time
MST
Temp
°F
RH
%
DewPt
°F
Wind
mph
Dir
°
Gust
mph
Dir
°
Press
in Hg
Solar
W/m^2
Prec
in
2023-10-04 09:05 55.8 48.0 36.4 8.6 162 13.0 147 24.953 453.9 0.00
2023-10-04 09:00 55.7 45.9 35.2 10.6 140 15.2 134 24.956 447.1 0.00
2023-10-04 08:55 56.6 47.1 36.7 7.2 136 11.3 136 24.959 443.8 0.00
2023-10-04 08:50 56.1 49.2 37.4 5.3 129 8.1 99 24.961 433.8 0.00
2023-10-04 08:45 55.7 49.2 37.0 5.3 105 7.3 119 24.960 422.7 0.00
2023-10-04 08:40 55.2 52.2 38.0 6.5 129 8.8 124 24.962 408.3 0.00
2023-10-04 08:35 54.8 53.7 38.3 6.8 115 9.4 117 24.962 396.0 0.00
2023-10-04 08:30 54.8 54.0 38.4 5.9 99 9.1 99 24.962 383.1 0.00
2023-10-04 08:25 54.3 54.1 38.0 5.1 110 8.7 125 24.963 370.0 0.00
2023-10-04 08:20 54.0 55.2 38.3 5.8 146 8.7 127 24.965 355.2 0.00
2023-10-04 08:15 53.6 54.9 37.8 5.6 128 7.3 106 24.966 340.5 0.00
2023-10-04 08:10 53.4 55.8 38.0 5.1 108 7.2 97 24.968 326.2 0.00
2023-10-04 08:05 53.0 56.0 37.7 5.8 112 8.5 106 24.967 312.3 0.00
2023-10-04 08:00 52.7 55.2 37.1 5.8 130 8.9 122 24.967 299.5 0.00
2023-10-04 07:55 52.4 57.0 37.6 5.1 138 7.8 105 24.968 286.4 0.00
2023-10-04 07:50 52.1 59.0 38.2 4.8 81 8.3 91 24.972 285.3 0.00
2023-10-04 07:45 51.6 60.8 38.5 5.2 92 8.1 91 24.973 259.5 0.00
2023-10-04 07:40 51.1 62.2 38.6 4.5 121 6.7 109 24.975 244.0 0.00
2023-10-04 07:35 50.0 63.3 38.0 4.2 109 7.3 64 24.978 229.3 0.00
2023-10-04 07:30 49.7 64.9 38.4 5.7 52 7.2 61 24.980 214.4 0.00
2023-10-04 07:25 49.7 64.0 38.0 4.6 60 6.5 65 24.981 199.9 0.00
2023-10-04 07:20 50.1 63.3 38.2 4.5 44 5.2 51 24.981 184.8 0.00
2023-10-04 07:15 50.8 62.0 38.2 2.6 33 4.2 28 24.980 171.9 0.00
2023-10-04 07:10 50.2 59.3 36.6 2.1 114 4.1 140 24.978 157.3 0.00
2023-10-04 07:05 49.7 60.5 36.6 2.7 116 4.3 138 24.976 142.3 0.00
2023-10-04 07:00 49.4 61.1 36.6 3.5 106 5.1 84 24.975 120.3 0.00
2023-10-04 06:55 49.1 61.5 36.4 4.4 110 6.9 98 24.975 119.2 0.00
2023-10-04 06:50 48.8 61.2 36.1 4.4 92 6.1 95 24.973 80.7 0.00
2023-10-04 06:45 48.1 60.9 35.2 4.6 118 8.7 130 24.974 75.0 0.00
2023-10-04 06:40 47.6 62.5 35.4 6.9 131 9.5 146 24.973 26.5 0.00